Time;durP1;ratioP1;P1;durP2;ratioP2;P2;SDS_P1;SDS_P2;PMS_P1;PMS_P2;Temp;Humidity;BMP_temperature;BMP_pressure;BME280_temperature;BME280_humidity;BME280_pressure;Samples;Min_cycle;Max_cycle;Signal;HPM_P1;HPM_P2
2023/09/01 00:02:23;;;;;;;;;;;;;;;22.23;29.41;97763.09;4999575;28;1001;-78
2023/09/01 00:05:01;;;;;;;;;;;;;;;22.25;29.33;97752.88;5032336;28;1331;-77
2023/09/01 00:07:27;;;;;;;;;;;;;;;22.28;29.47;97751.97;5036070;28;1909;-77
2023/09/01 00:09:52;;;;;;;;;;;;;;;22.23;29.39;97748.91;5019344;28;1242;-77
2023/09/01 00:12:18;;;;;;;;;;;;;;;22.43;29.05;97751.47;5019277;28;1118;-77
2023/09/01 00:14:43;;;;;;;;;;;;;;;22.23;29.44;97755.38;5035788;28;1390;-78
2023/09/01 00:17:09;;;;;;;;;;;;;;;22.22;29.41;97753.75;5002804;28;899;-78
2023/09/01 00:19:38;;;;;;;;;;;;;;;22.30;29.07;97749.47;5002962;28;956;-78
2023/09/01 00:22:04;;;;;;;;;;;;;;;22.36;29.11;97753.28;4979426;28;935;-78
2023/09/01 00:24:33;;;;;;;;;;;;;;;22.36;29.12;97758.97;4963535;28;1081;-77
2023/09/01 00:26:59;;;;;;;;;;;;;;;22.30;29.28;97769.28;4995863;28;1902;-78
2023/09/01 00:29:25;;;;;;;;;;;;;;;22.32;29.19;97763.94;4996019;28;981;-77
2023/09/01 00:31:50;;;;;;;;;;;;;;;22.33;28.85;97754.22;4995421;28;910;-78
2023/09/01 00:34:16;;;;;;;;;;;;;;;22.40;28.65;97756.03;4995956;28;876;-78
2023/09/01 00:36:42;;;;;;;;;;;;;;;22.08;29.01;97757.06;5004469;28;875;-78
2023/09/01 00:39:08;;;;;;;;;;;;;;;22.29;28.72;97750.72;5035143;28;1148;-78
2023/09/01 00:41:34;;;;;;;;;;;;;;;22.06;29.31;97734.81;5002585;28;1143;-78
2023/09/01 00:43:59;;;;;;;;;;;;;;;22.23;29.17;97744.03;5018611;28;977;-78
2023/09/01 00:46:25;;;;;;;;;;;;;;;22.05;29.72;97735.28;5035336;28;842;-78
2023/09/01 00:48:51;;;;;;;;;;;;;;;22.34;29.26;97735.16;5034721;28;1910;-78
2023/09/01 00:51:16;;;;;;;;;;;;;;;22.17;29.97;97728.84;5002328;28;1321;-78
2023/09/01 00:53:42;;;;;;;;;;;;;;;22.17;30.05;97723.16;5063529;28;1188;-78
2023/09/01 00:56:07;;;;;;;;;;;;;;;22.28;30.02;97734.97;5039513;28;1284;-78
2023/09/01 00:58:33;;;;;;;;;;;;;;;22.08;30.20;97737.22;5039352;28;1299;-78
2023/09/01 01:00:59;;;;;;;;;;;;;;;22.11;30.46;97733.50;5022935;28;916;-77
2023/09/01 01:03:25;;;;;;;;;;;;;;;22.04;30.65;97736.53;5055912;28;859;-78
2023/09/01 01:06:09;;;;;;;;;;;;;;;22.11;30.61;97727.81;5055682;28;968;-78
2023/09/01 01:08:49;;;;;;;;;;;;;;;22.34;30.25;97733.13;5039910;28;1906;-79
2023/09/01 01:11:17;;;;;;;;;;;;;;;22.35;29.99;97746.03;5055518;28;1206;-78
2023/09/01 01:13:44;;;;;;;;;;;;;;;22.32;30.34;97752.63;5039134;28;1139;-78
2023/09/01 01:16:10;;;;;;;;;;;;;;;22.29;30.50;97747.09;5057058;28;971;-78
2023/09/01 01:18:36;;;;;;;;;;;;;;;22.51;29.85;97747.94;5018171;28;1067;-78
2023/09/01 01:21:08;;;;;;;;;;;;;;;22.50;30.13;97754.06;5001878;28;1207;-78
2023/09/01 01:23:34;;;;;;;;;;;;;;;22.29;30.48;97747.88;5017681;28;999;-78
2023/09/01 01:26:00;;;;;;;;;;;;;;;22.50;29.96;97745.56;5034877;28;909;-78
2023/09/01 01:28:25;;;;;;;;;;;;;;;22.55;30.09;97739.31;5034219;28;1906;-78
2023/09/01 01:30:51;;;;;;;;;;;;;;;22.58;29.97;97741.22;5018325;28;1217;-78
2023/09/01 01:33:46;;;;;;;;;;;;;;;22.30;30.56;97752.28;5034511;28;971;-78
2023/09/01 01:36:31;;;;;;;;;;;;;;;22.25;30.81;97752.88;4998606;28;1227;-78
2023/09/01 01:39:04;;;;;;;;;;;;;;;22.17;30.83;97762.84;5014854;28;1109;-78
2023/09/01 01:41:52;;;;;;;;;;;;;;;22.45;30.07;97766.00;4998232;28;1077;-78
2023/09/01 01:44:20;;;;;;;;;;;;;;;22.33;30.42;97771.22;5015825;28;915;-78
2023/09/01 01:46:46;;;;;;;;;;;;;;;22.31;30.20;97773.72;5002664;28;947;-78
2023/09/01 01:49:11;;;;;;;;;;;;;;;22.41;29.76;97770.97;5018431;28;1906;-77
2023/09/01 01:51:37;;;;;;;;;;;;;;;22.49;29.65;97770.28;5019144;28;841;-78
2023/09/01 01:54:03;;;;;;;;;;;;;;;22.57;29.54;97773.66;5029841;28;1040;-78
2023/09/01 01:56:28;;;;;;;;;;;;;;;22.23;30.26;97772.38;5025211;28;1134;-78
2023/09/01 01:58:54;;;;;;;;;;;;;;;22.51;29.73;97778.34;5058111;28;1115;-78
2023/09/01 02:01:20;;;;;;;;;;;;;;;22.36;29.63;97775.97;5041651;28;1088;-78
2023/09/01 02:03:45;;;;;;;;;;;;;;;22.32;29.51;97774.50;5031759;28;1038;-78
2023/09/01 02:06:11;;;;;;;;;;;;;;;22.24;29.91;97773.97;5038140;28;981;-78
2023/09/01 02:08:37;;;;;;;;;;;;;;;22.34;29.45;97778.47;5001661;28;1902;-78
2023/09/01 02:11:03;;;;;;;;;;;;;;;22.32;29.39;97778.13;5001682;28;1068;-78
2023/09/01 02:13:28;;;;;;;;;;;;;;;22.30;29.32;97783.47;5036507;28;1112;-78
2023/09/01 02:15:54;;;;;;;;;;;;;;;22.44;29.23;97782.22;5041541;28;1537;-78
2023/09/01 02:18:20;;;;;;;;;;;;;;;22.15;29.40;97792.88;5040900;28;1162;-78
2023/09/01 02:20:45;;;;;;;;;;;;;;;22.34;29.01;97792.66;5058653;28;853;-78
2023/09/01 02:23:16;;;;;;;;;;;;;;;22.26;29.40;97788.47;5057459;28;975;-77
2023/09/01 02:25:42;;;;;;;;;;;;;;;22.40;29.09;97783.56;5041201;28;1337;-78
2023/09/01 02:28:08;;;;;;;;;;;;;;;22.12;29.59;97788.91;5037174;28;1950;-78
2023/09/01 02:30:33;;;;;;;;;;;;;;;22.36;29.27;97795.81;5021441;28;1255;-78
2023/09/01 02:32:59;;;;;;;;;;;;;;;22.49;29.00;97800.69;5037972;28;851;-77
2023/09/01 02:35:25;;;;;;;;;;;;;;;22.10;29.30;97795.03;5037573;28;1190;-78
2023/09/01 02:37:51;;;;;;;;;;;;;;;22.24;29.28;97807.97;5037506;28;1126;-78
2023/09/01 02:40:16;;;;;;;;;;;;;;;22.17;29.27;97815.88;5025440;28;934;-78
2023/09/01 02:42:42;;;;;;;;;;;;;;;22.24;29.21;97813.63;5037217;28;1234;-78
2023/09/01 02:45:09;;;;;;;;;;;;;;;22.06;29.34;97813.38;5053658;28;818;-78
2023/09/01 02:47:35;;;;;;;;;;;;;;;22.25;29.04;97815.22;5036976;28;1965;-78
2023/09/01 02:50:02;;;;;;;;;;;;;;;21.90;29.58;97810.63;5020808;28;975;-78
2023/09/01 02:52:27;;;;;;;;;;;;;;;22.21;29.11;97810.91;5020679;28;1027;-78
2023/09/01 02:54:55;;;;;;;;;;;;;;;22.32;28.74;97809.31;4997332;28;1232;-78
2023/09/01 02:57:21;;;;;;;;;;;;;;;22.35;28.83;97808.41;4998027;28;783;-78
2023/09/01 02:59:46;;;;;;;;;;;;;;;22.47;28.60;97814.50;5013194;28;1285;-78
2023/09/01 03:02:12;;;;;;;;;;;;;;;22.42;28.56;97817.91;5000898;28;1310;-77
2023/09/01 03:04:38;;;;;;;;;;;;;;;22.30;28.85;97816.69;5000826;28;1210;-78
2023/09/01 03:07:03;;;;;;;;;;;;;;;22.40;28.85;97814.75;5000881;28;1914;-78
2023/09/01 03:09:29;;;;;;;;;;;;;;;22.36;28.83;97826.22;5000620;28;1283;-78
2023/09/01 03:11:55;;;;;;;;;;;;;;;22.11;29.26;97821.34;4997391;28;1607;-78
2023/09/01 03:14:21;;;;;;;;;;;;;;;22.11;29.16;97827.00;4981218;28;1136;-78
2023/09/01 03:16:47;;;;;;;;;;;;;;;22.29;28.48;97830.06;4981010;28;1218;-78
2023/09/01 03:19:13;;;;;;;;;;;;;;;22.34;28.52;97840.84;4997244;28;1328;-78
2023/09/01 03:21:38;;;;;;;;;;;;;;;22.39;28.43;97835.84;4997199;28;1195;-78
2023/09/01 03:24:04;;;;;;;;;;;;;;;22.60;27.84;97833.09;4994615;28;1017;-78
2023/09/01 03:26:29;;;;;;;;;;;;;;;22.24;28.37;97841.19;4992552;28;1187;-78
2023/09/01 03:28:55;;;;;;;;;;;;;;;22.10;28.69;97848.06;5013038;28;1914;-78
2023/09/01 03:31:21;;;;;;;;;;;;;;;22.22;28.40;97838.78;4997103;28;974;-77
2023/09/01 03:33:47;;;;;;;;;;;;;;;22.32;28.32;97849.00;5012833;28;1297;-78
2023/09/01 03:36:13;;;;;;;;;;;;;;;22.26;28.15;97845.13;5013169;28;1317;-77
2023/09/01 03:38:39;;;;;;;;;;;;;;;21.94;28.52;97839.66;5013077;28;1255;-78
2023/09/01 03:41:05;;;;;;;;;;;;;;;22.20;28.38;97835.63;4996838;28;915;-78
2023/09/01 03:43:31;;;;;;;;;;;;;;;22.04;28.71;97838.53;5043034;28;1230;-78
2023/09/01 03:45:57;;;;;;;;;;;;;;;22.09;28.70;97841.59;5052865;28;1298;-78
2023/09/01 03:48:23;;;;;;;;;;;;;;;22.18;28.56;97838.13;5052533;28;1909;-78
2023/09/01 03:51:18;;;;;;;;;;;;;;;21.83;29.13;97834.31;5036545;28;1162;-78
2023/09/01 03:53:44;;;;;;;;;;;;;;;22.09;28.92;97835.13;4990605;28;1243;-78
2023/09/01 03:56:11;;;;;;;;;;;;;;;22.17;28.89;97839.34;4958639;28;979;-78
2023/09/01 03:58:37;;;;;;;;;;;;;;;22.36;28.43;97832.66;4942329;29;1249;-78
2023/09/01 04:01:05;;;;;;;;;;;;;;;22.25;28.75;97848.44;4957645;29;1021;-78
2023/09/01 04:03:31;;;;;;;;;;;;;;;22.32;28.55;97848.19;4957378;29;982;-78
2023/09/01 04:06:00;;;;;;;;;;;;;;;22.15;28.99;97867.34;4941735;29;1078;-77
2023/09/01 04:08:25;;;;;;;;;;;;;;;22.17;28.70;97870.53;4941267;29;1914;-77
2023/09/01 04:10:51;;;;;;;;;;;;;;;21.98;28.81;97874.34;4925844;29;1298;-77
2023/09/01 04:13:17;;;;;;;;;;;;;;;22.00;28.99;97877.50;4925932;29;873;-78
2023/09/01 04:15:44;;;;;;;;;;;;;;;22.28;28.52;97885.19;4919466;29;1693;-77
2023/09/01 04:18:09;;;;;;;;;;;;;;;22.12;28.42;97878.78;4903387;29;1102;-77
2023/09/01 04:20:35;;;;;;;;;;;;;;;21.86;28.64;97884.38;4919295;29;1083;-77
2023/09/01 04:23:02;;;;;;;;;;;;;;;22.14;28.44;97885.63;4918962;29;1117;-77
2023/09/01 04:25:29;;;;;;;;;;;;;;;22.34;28.03;97899.59;4919012;29;1062;-77
2023/09/01 04:27:55;;;;;;;;;;;;;;;22.10;28.46;97890.56;4935069;29;1989;-77
2023/09/01 04:30:21;;;;;;;;;;;;;;;22.04;28.45;97898.03;4969819;28;1352;-77
2023/09/01 04:32:47;;;;;;;;;;;;;;;22.29;27.99;97905.81;4976335;28;965;-76
2023/09/01 04:35:13;;;;;;;;;;;;;;;22.35;27.77;97904.78;4992606;28;1194;-77
2023/09/01 04:37:38;;;;;;;;;;;;;;;22.21;28.15;97905.22;4992802;28;917;-76
2023/09/01 04:40:06;;;;;;;;;;;;;;;22.20;28.21;97914.97;4992687;28;1097;-76
2023/09/01 04:42:32;;;;;;;;;;;;;;;21.96;28.53;97910.81;4976153;28;1297;-77
2023/09/01 04:44:59;;;;;;;;;;;;;;;22.24;28.01;97909.22;4976504;28;1343;-76
2023/09/01 04:47:24;;;;;;;;;;;;;;;22.39;27.72;97918.06;5007065;28;1993;-76
2023/09/01 04:49:51;;;;;;;;;;;;;;;22.30;28.15;97911.03;4995532;28;1020;-77
2023/09/01 04:52:16;;;;;;;;;;;;;;;22.14;28.20;97913.94;4995793;28;942;-76
2023/09/01 04:54:42;;;;;;;;;;;;;;;22.38;28.23;97910.78;4979177;28;1132;-77
2023/09/01 04:57:08;;;;;;;;;;;;;;;21.94;29.06;97918.97;4976183;28;1270;-77
2023/09/01 04:59:33;;;;;;;;;;;;;;;22.18;28.83;97911.81;4990774;28;901;-77
2023/09/01 05:01:59;;;;;;;;;;;;;;;21.93;28.94;97925.91;4995725;28;1133;-77
2023/09/01 05:04:25;;;;;;;;;;;;;;;22.18;28.72;97916.69;4979596;28;831;-78
2023/09/01 05:06:51;;;;;;;;;;;;;;;22.04;29.22;97912.19;4979518;28;1104;-77
2023/09/01 05:09:17;;;;;;;;;;;;;;;22.34;28.61;97925.88;4979607;28;1983;-78
2023/09/01 05:11:42;;;;;;;;;;;;;;;22.20;28.72;97937.66;4975899;28;996;-78
2023/09/01 05:14:08;;;;;;;;;;;;;;;22.23;28.97;97942.44;4975963;28;1158;-77
2023/09/01 05:16:33;;;;;;;;;;;;;;;22.21;29.09;97932.78;4975910;28;1128;-77
2023/09/01 05:18:59;;;;;;;;;;;;;;;22.26;28.90;97935.84;4949014;28;1156;-77
2023/09/01 05:21:25;;;;;;;;;;;;;;;22.35;28.70;97938.81;4983136;28;1131;-77
2023/09/01 05:23:50;;;;;;;;;;;;;;;22.41;28.79;97947.53;4999011;28;1502;-78
2023/09/01 05:26:16;;;;;;;;;;;;;;;22.19;29.16;97938.91;4997578;28;1180;-78
2023/09/01 05:28:41;;;;;;;;;;;;;;;22.10;29.12;97939.56;4979839;28;1997;-77
2023/09/01 05:31:07;;;;;;;;;;;;;;;22.08;29.07;97944.06;4979943;28;1216;-77
2023/09/01 05:33:40;;;;;;;;;;;;;;;22.29;28.95;97948.31;4966234;28;1835;-77
2023/09/01 05:36:06;;;;;;;;;;;;;;;22.45;28.42;97947.44;4960545;28;1235;-77
2023/09/01 05:38:31;;;;;;;;;;;;;;;22.24;29.04;97946.84;4960186;28;1061;-78
2023/09/01 05:40:58;;;;;;;;;;;;;;;22.04;29.56;97951.88;4960416;28;1296;-78
2023/09/01 05:43:23;;;;;;;;;;;;;;;21.97;29.58;97949.25;4975738;28;1135;-78
2023/09/01 05:45:49;;;;;;;;;;;;;;;22.16;29.31;97953.16;4979155;28;1252;-78
2023/09/01 05:48:15;;;;;;;;;;;;;;;22.16;29.45;97953.16;4998840;28;1922;-78
2023/09/01 05:50:42;;;;;;;;;;;;;;;22.20;29.25;97946.16;4999105;28;1146;-78
2023/09/01 05:53:09;;;;;;;;;;;;;;;22.31;29.15;97940.94;5032019;28;1222;-78
2023/09/01 05:55:35;;;;;;;;;;;;;;;22.43;28.82;97939.38;5039346;28;964;-78
2023/09/01 05:58:01;;;;;;;;;;;;;;;22.10;29.51;97933.06;5017979;28;920;-77
2023/09/01 06:00:26;;;;;;;;;;;;;;;22.09;29.84;97928.66;5002598;28;967;-78
2023/09/01 06:02:52;;;;;;;;;;;;;;;22.32;29.38;97933.22;5018824;28;934;-77
2023/09/01 06:05:18;;;;;;;;;;;;;;;22.34;29.41;97933.59;5018536;28;954;-78
2023/09/01 06:07:43;;;;;;;;;;;;;;;22.11;29.79;97940.34;5002105;28;1977;-78
2023/09/01 06:10:09;;;;;;;;;;;;;;;22.22;29.75;97937.97;4985563;28;1070;-78
2023/09/01 06:12:35;;;;;;;;;;;;;;;22.41;29.32;97935.41;5018183;28;875;-77
2023/09/01 06:15:00;;;;;;;;;;;;;;;21.95;30.17;97946.06;5018067;28;1051;-78
2023/09/01 06:17:26;;;;;;;;;;;;;;;22.02;30.32;97954.34;5018283;28;1017;-78
2023/09/01 06:19:51;;;;;;;;;;;;;;;22.16;30.09;97956.78;5018171;28;908;-77
2023/09/01 06:22:17;;;;;;;;;;;;;;;22.21;29.80;97966.78;5018373;28;920;-78
2023/09/01 06:24:42;;;;;;;;;;;;;;;22.26;29.67;97969.84;5001588;28;922;-78
2023/09/01 06:27:08;;;;;;;;;;;;;;;22.47;29.40;97970.44;4968998;28;1977;-78
2023/09/01 06:29:33;;;;;;;;;;;;;;;22.58;28.91;97979.41;5042210;28;1727;-79
2023/09/01 06:31:59;;;;;;;;;;;;;;;22.32;29.41;97970.09;5046596;28;825;-79
2023/09/01 06:34:25;;;;;;;;;;;;;;;22.12;29.73;97975.13;5039780;28;874;-78
2023/09/01 06:36:50;;;;;;;;;;;;;;;22.28;29.66;97978.72;5039441;28;930;-79
2023/09/01 06:39:18;;;;;;;;;;;;;;;22.33;29.78;97986.66;5038609;28;1133;-79
2023/09/01 06:41:45;;;;;;;;;;;;;;;22.24;29.77;97986.53;5038847;28;783;-79
2023/09/01 06:44:10;;;;;;;;;;;;;;;22.23;29.74;97987.78;5038513;28;1237;-79
2023/09/01 06:46:36;;;;;;;;;;;;;;;22.35;29.64;97977.69;5038481;28;839;-79
2023/09/01 06:49:02;;;;;;;;;;;;;;;22.41;29.65;97983.59;5039363;28;1987;-76
2023/09/01 06:51:28;;;;;;;;;;;;;;;22.42;29.42;97988.81;5049011;28;1716;-76
2023/09/01 06:53:54;;;;;;;;;;;;;;;22.31;29.46;97986.31;5054325;28;1447;-77
2023/09/01 06:56:19;;;;;;;;;;;;;;;22.42;29.40;97994.47;5049357;28;771;-77
2023/09/01 06:58:45;;;;;;;;;;;;;;;22.61;28.93;98001.22;5059176;28;839;-78
2023/09/01 07:01:11;;;;;;;;;;;;;;;22.12;30.02;97992.94;5059393;28;833;-77
2023/09/01 07:03:36;;;;;;;;;;;;;;;22.26;29.61;98001.03;5054385;28;840;-77
2023/09/01 07:06:02;;;;;;;;;;;;;;;22.07;29.87;97996.28;5037907;28;1108;-78
2023/09/01 07:08:28;;;;;;;;;;;;;;;22.33;29.60;97994.38;5051976;28;1910;-77
2023/09/01 07:10:55;;;;;;;;;;;;;;;22.14;29.83;97995.34;5065226;28;1243;-77
2023/09/01 07:13:21;;;;;;;;;;;;;;;22.36;29.51;98001.97;5033854;28;1496;-77
2023/09/01 07:15:48;;;;;;;;;;;;;;;22.46;29.30;98003.69;5020334;28;835;-77
2023/09/01 07:18:13;;;;;;;;;;;;;;;22.29;29.36;98008.66;5037124;28;1013;-78
2023/09/01 07:20:39;;;;;;;;;;;;;;;22.45;29.31;97998.47;5036981;28;940;-79
2023/09/01 07:23:04;;;;;;;;;;;;;;;22.30;29.96;98004.56;5036530;28;946;-78
2023/09/01 07:25:31;;;;;;;;;;;;;;;22.59;29.29;97992.38;5016983;28;926;-78
2023/09/01 07:27:56;;;;;;;;;;;;;;;22.10;30.09;98004.72;5016609;28;1902;-78
2023/09/01 07:30:22;;;;;;;;;;;;;;;22.33;29.65;98009.34;5013285;28;1594;-78
2023/09/01 07:32:47;;;;;;;;;;;;;;;22.42;29.59;98022.03;4984275;28;1212;-79
2023/09/01 07:35:13;;;;;;;;;;;;;;;22.46;29.57;98017.06;4983974;28;1003;-78
2023/09/01 07:37:38;;;;;;;;;;;;;;;22.15;30.25;98014.72;4999992;28;1560;-78
2023/09/01 07:40:04;;;;;;;;;;;;;;;22.39;29.70;98031.47;5016853;28;953;-78
2023/09/01 07:42:30;;;;;;;;;;;;;;;22.41;29.62;98031.81;5016088;28;902;-78
2023/09/01 07:44:55;;;;;;;;;;;;;;;22.49;29.39;98028.31;5016273;28;878;-78
2023/09/01 07:47:21;;;;;;;;;;;;;;;22.50;29.52;98026.28;5000309;28;1993;-79
2023/09/01 07:49:46;;;;;;;;;;;;;;;22.32;29.55;98030.41;4998055;28;1237;-79
2023/09/01 07:52:12;;;;;;;;;;;;;;;22.53;29.31;98033.84;5036171;28;882;-78
2023/09/01 07:54:37;;;;;;;;;;;;;;;22.56;29.42;98038.63;5035975;28;927;-78
2023/09/01 07:57:03;;;;;;;;;;;;;;;22.50;29.32;98026.28;5036761;28;870;-78
2023/09/01 07:59:29;;;;;;;;;;;;;;;22.15;29.92;98037.38;5036971;28;963;-79
2023/09/01 08:01:54;;;;;;;;;;;;;;;22.26;29.57;98043.53;5048220;28;1756;-78
2023/09/01 08:04:20;;;;;;;;;;;;;;;22.31;29.58;98040.16;5038848;28;1458;-78
2023/09/01 08:06:47;;;;;;;;;;;;;;;22.17;29.84;98045.44;5022583;28;859;-79
2023/09/01 08:09:12;;;;;;;;;;;;;;;22.22;29.69;98042.84;5034043;28;1918;-78
2023/09/01 08:11:38;;;;;;;;;;;;;;;22.04;30.16;98043.34;5038534;28;1784;-78
2023/09/01 08:14:03;;;;;;;;;;;;;;;22.49;29.40;98041.69;5038812;28;1728;-78
2023/09/01 08:16:30;;;;;;;;;;;;;;;22.38;29.52;98032.69;5038675;28;1970;-78
2023/09/01 08:18:58;;;;;;;;;;;;;;;22.19;29.79;98038.09;5039116;28;921;-79
2023/09/01 08:21:24;;;;;;;;;;;;;;;22.18;29.67;98033.69;5035889;28;1410;-79
2023/09/01 08:23:50;;;;;;;;;;;;;;;22.26;29.80;98025.75;5002674;28;1123;-78
2023/09/01 08:26:16;;;;;;;;;;;;;;;22.22;29.93;98025.03;5035693;28;939;-78
2023/09/01 08:28:42;;;;;;;;;;;;;;;22.09;30.33;98027.81;5018814;28;1934;-78
2023/09/01 08:31:09;;;;;;;;;;;;;;;22.09;30.20;98022.94;5019243;28;956;-78
2023/09/01 08:33:36;;;;;;;;;;;;;;;22.42;29.58;98036.22;4977875;28;1706;-79
2023/09/01 08:36:03;;;;;;;;;;;;;;;22.25;29.83;98030.63;4995042;28;2046;-78
2023/09/01 08:38:29;;;;;;;;;;;;;;;22.24;29.89;98034.72;4979584;28;926;-79
2023/09/01 08:40:58;;;;;;;;;;;;;;;22.25;29.90;98029.84;4995910;28;1048;-78
2023/09/01 08:43:23;;;;;;;;;;;;;;;22.36;29.66;98030.31;4979289;28;1032;-78
2023/09/01 08:45:49;;;;;;;;;;;;;;;22.25;30.03;98027.00;4976344;28;902;-78
2023/09/01 08:48:14;;;;;;;;;;;;;;;22.19;29.99;98032.44;4967573;28;1998;-79
2023/09/01 08:50:40;;;;;;;;;;;;;;;22.42;29.56;98030.56;4960009;28;1869;-78
2023/09/01 08:53:05;;;;;;;;;;;;;;;22.61;29.35;98023.91;4975292;28;1086;-79
2023/09/01 08:55:31;;;;;;;;;;;;;;;22.62;29.29;98031.94;4992915;28;2088;-79
2023/09/01 08:57:56;;;;;;;;;;;;;;;22.65;29.05;98035.94;4995007;28;1524;-79
2023/09/01 09:00:22;;;;;;;;;;;;;;;22.61;29.24;98029.56;4962564;28;1598;-79
2023/09/01 09:02:47;;;;;;;;;;;;;;;22.41;29.65;98037.47;4978855;28;954;-79
2023/09/01 09:05:13;;;;;;;;;;;;;;;22.30;29.56;98027.25;4978964;28;849;-79
2023/09/01 09:07:39;;;;;;;;;;;;;;;22.54;29.42;98036.25;4979381;28;1927;-79
2023/09/01 09:10:04;;;;;;;;;;;;;;;22.60;29.24;98033.66;4983639;28;1221;-79
2023/09/01 09:12:36;;;;;;;;;;;;;;;22.60;29.05;98039.34;4994647;28;978;-78
2023/09/01 09:15:03;;;;;;;;;;;;;;;22.66;28.82;98040.34;4994801;28;970;-78
2023/09/01 09:17:44;;;;;;;;;;;;;;;22.19;29.71;98038.09;4995148;28;907;-78
2023/09/01 09:20:14;;;;;;;;;;;;;;;22.06;29.93;98023.03;4979061;28;1011;-78
2023/09/01 09:22:49;;;;;;;;;;;;;;;22.24;29.87;98034.72;4978967;28;1298;-78
2023/09/01 09:25:28;;;;;;;;;;;;;;;22.16;29.90;98036.13;4994986;28;943;-79
2023/09/01 09:27:54;;;;;;;;;;;;;;;22.02;30.20;98034.50;4998183;28;1997;-79
2023/09/01 09:30:20;;;;;;;;;;;;;;;22.43;29.30;98030.09;4981990;28;1119;-79
2023/09/01 09:32:48;;;;;;;;;;;;;;;22.54;29.23;98029.81;5014714;28;982;-78
2023/09/01 09:35:14;;;;;;;;;;;;;;;22.72;29.10;98035.72;5014168;28;983;-78
2023/09/01 09:37:40;;;;;;;;;;;;;;;22.71;28.67;98036.97;4982340;28;1210;-78
2023/09/01 09:40:13;;;;;;;;;;;;;;;22.31;29.45;98043.00;4981910;28;934;-79
2023/09/01 09:42:38;;;;;;;;;;;;;;;22.41;29.23;98038.25;4984816;28;841;-78
2023/09/01 09:45:06;;;;;;;;;;;;;;;22.18;29.57;98036.50;5017729;28;1229;-78
2023/09/01 09:47:32;;;;;;;;;;;;;;;22.62;29.04;98042.50;5001259;28;1983;-79
2023/09/01 09:49:58;;;;;;;;;;;;;;;22.40;29.36;98042.34;5027778;28;923;-78
2023/09/01 09:52:23;;;;;;;;;;;;;;;22.36;29.56;98035.97;5037578;28;955;-78
2023/09/01 09:54:49;;;;;;;;;;;;;;;22.42;29.28;98033.38;5034219;28;971;-79
2023/09/01 09:57:15;;;;;;;;;;;;;;;22.50;29.39;98035.56;5017698;28;1134;-78
2023/09/01 09:59:57;;;;;;;;;;;;;;;22.38;29.38;98032.69;5017814;28;1248;-79
2023/09/01 10:02:25;;;;;;;;;;;;;;;22.28;29.81;98031.78;5001879;28;1562;-78
2023/09/01 10:04:51;;;;;;;;;;;;;;;22.29;29.74;98034.16;5001974;28;909;-78
2023/09/01 10:07:16;;;;;;;;;;;;;;;22.81;28.76;98038.69;4998170;28;1985;-78
2023/09/01 10:09:42;;;;;;;;;;;;;;;22.45;29.30;98043.84;4994635;28;1778;-78
2023/09/01 10:12:07;;;;;;;;;;;;;;;22.71;28.77;98036.97;4989912;28;956;-79
2023/09/01 10:14:37;;;;;;;;;;;;;;;22.66;28.91;98042.41;4978677;28;933;-79
2023/09/01 10:17:03;;;;;;;;;;;;;;;22.80;28.53;98041.97;4978846;28;954;-78
2023/09/01 10:19:28;;;;;;;;;;;;;;;22.82;28.28;98036.63;4962534;28;867;-78
2023/09/01 10:21:54;;;;;;;;;;;;;;;22.41;29.16;98040.31;4978620;28;1019;-78
2023/09/01 10:24:19;;;;;;;;;;;;;;;22.55;28.84;98043.53;4978831;28;986;-78
2023/09/01 10:26:45;;;;;;;;;;;;;;;22.58;28.91;98050.31;4979029;28;941;-78
2023/09/01 10:29:11;;;;;;;;;;;;;;;22.49;28.91;98036.03;4978667;28;1983;-77
2023/09/01 10:31:36;;;;;;;;;;;;;;;22.48;29.22;98049.38;4979084;28;1080;-78
2023/09/01 10:34:12;;;;;;;;;;;;;;;22.42;29.38;98050.41;4978527;28;968;-78
2023/09/01 10:36:38;;;;;;;;;;;;;;;22.56;28.92;98052.81;4978476;28;949;-78
2023/09/01 10:39:16;;;;;;;;;;;;;;;22.67;28.75;98050.44;4978188;28;906;-78
2023/09/01 10:41:44;;;;;;;;;;;;;;;22.69;28.78;98047.97;5019019;28;2114;-78
2023/09/01 10:44:10;;;;;;;;;;;;;;;23.02;27.88;98042.13;5037148;28;751;-78
2023/09/01 10:46:35;;;;;;;;;;;;;;;22.71;28.48;98039.81;5020864;28;1335;-78
2023/09/01 10:49:01;;;;;;;;;;;;;;;22.54;28.72;98035.47;5020591;28;1910;-78
2023/09/01 10:51:27;;;;;;;;;;;;;;;22.23;29.41;98038.78;5020483;28;999;-78
2023/09/01 10:53:53;;;;;;;;;;;;;;;22.70;28.63;98043.88;5020767;28;1352;-78
2023/09/01 10:56:20;;;;;;;;;;;;;;;22.81;28.26;98044.34;5020727;28;1085;-78
2023/09/01 10:58:49;;;;;;;;;;;;;;;22.56;28.75;98032.97;5003960;28;981;-78
2023/09/01 11:01:33;;;;;;;;;;;;;;;22.78;28.25;98025.38;5020970;28;941;-79
2023/09/01 11:04:13;;;;;;;;;;;;;;;22.56;28.91;98038.63;5036656;28;1143;-78
2023/09/01 11:07:00;;;;;;;;;;;;;;;22.67;28.81;98044.78;5036690;28;871;-78
2023/09/01 11:09:34;;;;;;;;;;;;;;;22.43;29.13;98046.31;5044388;28;1914;-78
2023/09/01 11:11:59;;;;;;;;;;;;;;;22.53;28.87;98039.53;5039958;28;972;-78
2023/09/01 11:14:25;;;;;;;;;;;;;;;22.35;29.21;98040.06;5056593;28;972;-78
2023/09/01 11:16:51;;;;;;;;;;;;;;;22.43;29.16;98037.81;5055526;28;1160;-79
2023/09/01 11:19:16;;;;;;;;;;;;;;;22.38;29.35;98044.03;5056869;28;934;-78
2023/09/01 11:21:42;;;;;;;;;;;;;;;22.74;28.77;98044.59;5056339;28;1018;-79
2023/09/01 11:24:07;;;;;;;;;;;;;;;22.69;28.64;98036.63;5036933;28;1261;-79
2023/09/01 11:26:33;;;;;;;;;;;;;;;22.60;28.87;98045.00;5036630;28;2097;-76
2023/09/01 11:28:58;;;;;;;;;;;;;;;22.82;28.52;98034.59;5040755;28;1914;-76
2023/09/01 11:31:34;;;;;;;;;;;;;;;22.70;28.45;98032.53;5052316;28;1489;-76
2023/09/01 11:33:59;;;;;;;;;;;;;;;22.40;29.09;98035.88;5037600;28;1394;-77
2023/09/01 11:36:25;;;;;;;;;;;;;;;22.60;28.88;98039.34;5038574;28;945;-77
2023/09/01 11:38:51;;;;;;;;;;;;;;;22.67;28.53;98039.09;5034017;28;1094;-79
2023/09/01 11:41:18;;;;;;;;;;;;;;;22.39;29.24;98034.31;5017235;28;901;-78
2023/09/01 11:43:43;;;;;;;;;;;;;;;22.68;28.88;98023.69;5023758;28;957;-79
2023/09/01 11:46:10;;;;;;;;;;;;;;;22.50;29.09;98029.09;5033900;28;983;-79
2023/09/01 11:48:36;;;;;;;;;;;;;;;22.69;28.70;98028.13;5037131;28;1977;-78
2023/09/01 11:51:01;;;;;;;;;;;;;;;22.53;29.01;98022.50;5021061;28;1221;-78
2023/09/01 11:53:27;;;;;;;;;;;;;;;22.79;28.63;98029.81;5020635;28;1022;-79
2023/09/01 11:55:58;;;;;;;;;;;;;;;22.71;28.81;98025.63;5039125;28;944;-79
2023/09/01 11:58:32;;;;;;;;;;;;;;;22.74;28.88;98026.75;5039510;28;889;-78
2023/09/01 12:01:14;;;;;;;;;;;;;;;22.73;28.83;98025.16;5055812;28;997;-78
2023/09/01 12:03:46;;;;;;;;;;;;;;;22.55;29.27;98025.72;5038707;28;1014;-77
2023/09/01 12:06:15;;;;;;;;;;;;;;;22.56;29.00;98019.59;5039175;28;1009;-78
2023/09/01 12:08:41;;;;;;;;;;;;;;;22.57;29.08;98023.22;5038583;28;1906;-77
2023/09/01 12:11:07;;;;;;;;;;;;;;;22.52;29.26;98026.59;5035454;28;1093;-77
2023/09/01 12:13:33;;;;;;;;;;;;;;;22.57;29.18;98024.00;5035402;28;1107;-78
2023/09/01 12:15:59;;;;;;;;;;;;;;;22.59;29.05;98021.53;5035700;28;1121;-78
2023/09/01 12:18:28;;;;;;;;;;;;;;;22.90;28.51;98018.19;5035126;28;1070;-77
2023/09/01 12:20:53;;;;;;;;;;;;;;;22.44;29.33;98019.56;5035249;28;911;-77
2023/09/01 12:23:31;;;;;;;;;;;;;;;22.68;29.07;98017.22;5018681;28;988;-79
2023/09/01 12:25:57;;;;;;;;;;;;;;;22.58;29.33;98021.97;5016675;28;905;-79
2023/09/01 12:28:26;;;;;;;;;;;;;;;22.76;28.65;98022.22;5017174;28;1886;-79
2023/09/01 12:30:52;;;;;;;;;;;;;;;22.75;28.85;98029.16;5034800;28;968;-79
2023/09/01 12:33:18;;;;;;;;;;;;;;;22.76;29.02;98025.06;5035116;28;855;-79
2023/09/01 12:35:43;;;;;;;;;;;;;;;22.75;28.93;98029.16;5019094;28;1266;-79
2023/09/01 12:38:09;;;;;;;;;;;;;;;22.64;28.94;98023.00;5035077;28;971;-79
2023/09/01 12:40:34;;;;;;;;;;;;;;;22.32;29.62;98024.75;5035232;28;1236;-77
2023/09/01 12:43:00;;;;;;;;;;;;;;;22.66;29.15;98023.34;5018966;28;868;-76
2023/09/01 12:45:26;;;;;;;;;;;;;;;22.64;29.07;98023.00;5002615;28;1252;-77
2023/09/01 12:47:51;;;;;;;;;;;;;;;22.75;28.83;98022.69;5001946;28;1902;-76
2023/09/01 12:50:17;;;;;;;;;;;;;;;22.74;28.98;98021.88;4985995;28;1307;-76
2023/09/01 12:52:42;;;;;;;;;;;;;;;22.33;29.54;98022.72;5002292;28;1125;-76
2023/09/01 12:55:08;;;;;;;;;;;;;;;22.31;29.62;98020.31;5001975;28;1068;-77
2023/09/01 12:57:33;;;;;;;;;;;;;;;22.60;29.02;98013.81;5018500;28;956;-77
2023/09/01 12:59:59;;;;;;;;;;;;;;;22.49;29.18;98011.31;5014814;28;916;-77